Valencia, Pennsylvania
Current Conditions -  °F | °C
As of 6:55 PM on Monday 20 Oct 2014 (Local Time) from KBTP Reporting Station
Broken Clouds Broken Clouds  
Wind Chill: 54°   Ceiling: 8000
Heat Index: 54°   Visibility: 10mi
Dew Point: 41°   Wind: 7mph
Humidity: 62%   Direction: 170°S
Pressure: 29.89"   Gusts: NA
Location:  40.68°N, 79.99°W
Report Text: KBTP 202255Z AUTO 17006KT 10SM FEW045 SCT060 BKN080 12/05 A2989 RMK AO1
Loading
Personal Weather Stations






























Interactive Weather Map New forecast layout! Learn more

10-Day Weather Forecast

Advertisements
Track Severe Weather on mobile